Monroe, LA (71203)

7:05 PM CDT on August 21, 2014 (GMT -0500)
Lakeshore/Swartz | Change Station
CLOSE
Current Station
Personal Weather Station
Location: Monroe, LA
Elevation: 78 ft
Nearby Weather Stations

Elev 78 ft 32.54 °N, 92.00 °W | Updated 5 seconds ago

Partly Cloudy
Partly Cloudy
82.0 °F
Feels Like 86 °F
N
5.0
Wind Variable Wind from WSW
Gusts 5.0 mph

Today
High -- | Low -- °F
--% Chance of Precip.
Yesterday
High -- | Low -- °F
Precip. -- in
6:35 AM 7:46 PM
Waning Crescent, 11% visible
Pressure 30.10 in
Visibility 10.0 miles
Clouds Few 9500 ft
Heat Index 86 °F
Dew Point 70 °F
Humidity 68%
Rainfall 0.00 in
Snow Depth Not available.
UV 0 out of 12
Pollen 8.40 out of 12
Air Quality Not available.
Flu Activity Not available.
SPECI KMLU 220000Z 22007KT 10SM FEW095 27/21 A3010 RMK AO2 LTG DSNT E AND SE TSE2354

More Conditions Fewer Conditions

Pressure 30.10 in
Visibility 10.0 miles
Clouds Few 9500 ft
Heat Index 86 °F
Dew Point 70 °F
Humidity 68%
Rainfall 0.00 in
Snow Depth Not available.
UV 0 out of 12
Pollen 8.40 out of 12
Air Quality Not available.
Flu Activity Not available.
SPECI KMLU 220000Z 22007KT 10SM FEW095 27/21 A3010 RMK AO2 LTG DSNT E AND SE TSE2354

More Conditions Fewer Conditions

Nowcast | as of 6:53 PM CDT on August 21, 2014

Scattered showers have been rapidly diminishing across northern Louisiana. Mostly light showers will move to the north northeast near 20 mph during the next hour.

×

10-Day Weather Forecast

Almanac

Astronomy

Aug. 21, 2014 Rise Set
Actual Time 6:35 AM CDT 7:46 PM CDT
Civil Twilight 6:10 AM CDT 8:11 PM CDT
Nautical Twilight 5:39 AM CDT 8:42 PM CDT
Astronomical Twilight 5:08 AM CDT 9:13 PM CDT
Moon 3:12 AM CDT (8/21) 5:10 PM CDT (8/21)
Length of Visible Light 14h 01m
Length of Day
13h 10m
Tomorrow will be 1m 50s shorter.
Waning Crescent, 11% of the Moon is Illuminated
Today
Waning Crescent
Aug 25
New
Sep 2
First Quarter
Sep 8
Full
Sep 15
Last Quarter

Today's Extremes

State Highs State Lows

Community

WunderPhotos

Upload Photos

1,746,059 photos uploaded!

Nearby

Snow Depth

Station Depth Elevation
No new snow has been reported.

Earthquake Activity

City Distance Mag. Time & Date
No recent earthquake activity has been reported nearby.
Minimum magnitude displayed is 2.5.

Coastal Water Temperatures

Place Temperature
No Stations Reporting

Nearby Weather Stations